createdAt,value
2023-02-26T00:01:47.054Z,100539.97
2023-02-26T00:04:15.636Z,100555.38
2023-02-26T00:06:57.894Z,100556.16
2023-02-26T00:09:26.947Z,100555.72
2023-02-26T00:11:55.656Z,100558.09
2023-02-26T00:14:24.868Z,100561.63
2023-02-26T00:17:12.492Z,100555.66
2023-02-26T00:19:41.248Z,100564.31
2023-02-26T00:22:09.970Z,100560.34
2023-02-26T00:24:38.346Z,100563.78
2023-02-26T00:27:06.682Z,100558.25
2023-02-26T00:29:35.304Z,100564.03
2023-02-26T00:32:04.043Z,100571.16
2023-02-26T00:34:33.210Z,100575.81
2023-02-26T00:37:30.006Z,100585.25
2023-02-26T00:40:14.128Z,100589.16
2023-02-26T00:42:42.879Z,100585.53
2023-02-26T00:45:13.050Z,100587.69
2023-02-26T00:47:50.023Z,100590.78
2023-02-26T00:50:28.391Z,100591.47
2023-02-26T00:53:23.410Z,100591.72
2023-02-26T00:55:51.818Z,100596.72
2023-02-26T00:58:20.100Z,100604.91
2023-02-26T01:00:48.625Z,100605.50
2023-02-26T01:03:17.296Z,100614.50
2023-02-26T01:05:45.871Z,100615.97
2023-02-26T01:08:24.700Z,100613.88
2023-02-26T01:10:53.301Z,100620.13
2023-02-26T01:13:21.937Z,100622.03
2023-02-26T01:15:57.175Z,100633.81
2023-02-26T01:18:39.461Z,100635.25
2023-02-26T01:21:14.753Z,100635.06
2023-02-26T01:23:48.853Z,100633.72
2023-02-26T01:26:28.696Z,100636.00
2023-02-26T01:28:57.384Z,100632.66
2023-02-26T01:31:54.587Z,100636.00
2023-02-26T01:34:30.146Z,100638.91
2023-02-26T01:37:14.426Z,100638.25
2023-02-26T01:39:59.510Z,100642.41
2023-02-26T01:42:32.632Z,100635.84
2023-02-26T01:45:19.848Z,100647.22
2023-02-26T01:48:05.582Z,100643.09
2023-02-26T01:50:37.105Z,100649.22
2023-02-26T01:53:05.535Z,100654.09
2023-02-26T01:55:33.911Z,100651.88
2023-02-26T01:58:04.055Z,100655.66
2023-02-26T02:00:33.094Z,100650.63
2023-02-26T02:03:02.408Z,100655.97
2023-02-26T02:05:36.904Z,100658.09
2023-02-26T02:08:05.482Z,100660.53
2023-02-26T02:10:34.168Z,100667.75
2023-02-26T02:13:02.415Z,100668.94
2023-02-26T02:15:36.829Z,100671.34
2023-02-26T02:18:20.029Z,100677.81
2023-02-26T02:21:13.017Z,100681.00
2023-02-26T02:23:58.244Z,100681.06
2023-02-26T02:26:38.961Z,100675.69
2023-02-26T02:29:19.309Z,100668.31
2023-02-26T02:32:23.601Z,100672.41
2023-02-26T02:34:59.644Z,100674.59
2023-02-26T02:38:05.605Z,100676.69
2023-02-26T02:40:38.410Z,100672.09
2023-02-26T02:43:23.433Z,100666.38
2023-02-26T02:45:54.902Z,100667.78
2023-02-26T02:48:41.478Z,100661.16
2023-02-26T02:51:25.780Z,100667.25
2023-02-26T02:53:59.311Z,100660.94
2023-02-26T02:56:35.761Z,100669.03
2023-02-26T02:59:23.461Z,100657.09
2023-02-26T03:02:09.192Z,100653.28
2023-02-26T03:04:38.269Z,100637.03
2023-02-26T03:07:06.570Z,100635.19
2023-02-26T03:09:35.383Z,100627.75
2023-02-26T03:12:04.370Z,100625.47
2023-02-26T03:14:34.139Z,100635.56
2023-02-26T03:17:26.802Z,100617.25
2023-02-26T03:20:31.318Z,100627.81
2023-02-26T03:23:24.941Z,100606.13
2023-02-26T03:26:16.387Z,100613.09
2023-02-26T03:29:05.526Z,100602.38
2023-02-26T03:31:53.982Z,100603.78
2023-02-26T03:34:44.825Z,100602.38
2023-02-26T03:37:23.218Z,100598.22
2023-02-26T03:39:56.127Z,100584.72
2023-02-26T03:42:32.032Z,100567.94
2023-02-26T03:45:05.860Z,100564.34
2023-02-26T03:47:36.256Z,100565.56
2023-02-26T03:50:09.717Z,100558.88
2023-02-26T03:52:42.925Z,100568.78
2023-02-26T03:55:19.315Z,100553.69
2023-02-26T03:57:48.566Z,100550.09
2023-02-26T04:00:18.872Z,100544.63
2023-02-26T04:02:56.904Z,100539.94
2023-02-26T04:05:34.267Z,100535.28
2023-02-26T04:08:03.487Z,100526.53
2023-02-26T04:10:41.382Z,100527.44
2023-02-26T04:13:10.105Z,100521.00
2023-02-26T04:15:38.558Z,100516.78
2023-02-26T04:18:07.218Z,100514.09
2023-02-26T04:20:35.686Z,100507.06
2023-02-26T04:23:04.074Z,100495.50
2023-02-26T04:25:32.355Z,100497.00
2023-02-26T04:28:00.680Z,100492.56
2023-02-26T04:30:29.063Z,100481.00
2023-02-26T04:32:57.362Z,100469.72
2023-02-26T04:35:25.693Z,100464.25
2023-02-26T04:37:54.012Z,100466.66
2023-02-26T04:40:24.563Z,100466.28
2023-02-26T04:42:52.957Z,100455.44
2023-02-26T04:45:21.254Z,100456.63
2023-02-26T04:47:49.683Z,100457.97
2023-02-26T04:50:18.217Z,100441.94
2023-02-26T04:52:46.541Z,100439.97
2023-02-26T04:55:15.745Z,100441.31
2023-02-26T04:57:44.039Z,100424.31
2023-02-26T05:00:12.964Z,100426.44
2023-02-26T05:02:41.257Z,100425.28
2023-02-26T05:05:09.943Z,100415.41
2023-02-26T05:07:38.665Z,100412.69
2023-02-26T05:10:08.345Z,100412.19
2023-02-26T05:12:36.765Z,100406.66
2023-02-26T05:15:05.988Z,100388.59
2023-02-26T05:17:34.385Z,100388.09
2023-02-26T05:20:02.688Z,100376.19
2023-02-26T05:22:31.000Z,100375.47
2023-02-26T05:24:59.306Z,100378.34
2023-02-26T05:27:27.682Z,100367.97
2023-02-26T05:29:56.023Z,100359.66
2023-02-26T05:32:24.444Z,100351.00
2023-02-26T05:34:52.765Z,100345.94
2023-02-26T05:37:21.107Z,100337.81
2023-02-26T05:39:49.410Z,100331.47
2023-02-26T05:42:17.763Z,100338.94
2023-02-26T05:44:46.133Z,100321.38
2023-02-26T05:47:14.432Z,100326.31
2023-02-26T05:49:42.815Z,100313.09
2023-02-26T05:52:11.183Z,100310.06
2023-02-26T05:54:39.494Z,100312.16
2023-02-26T05:57:07.856Z,100305.03
2023-02-26T05:59:36.181Z,100299.97
2023-02-26T06:02:04.564Z,100287.00
2023-02-26T06:04:32.910Z,100278.84
2023-02-26T06:07:01.203Z,100285.78
2023-02-26T06:09:29.980Z,100277.13
2023-02-26T06:11:58.397Z,100258.50
2023-02-26T06:14:26.832Z,100255.22
2023-02-26T06:16:55.170Z,100259.06
2023-02-26T06:19:23.521Z,100254.78
2023-02-26T06:21:52.051Z,100244.56
2023-02-26T06:24:20.397Z,100236.44
2023-02-26T06:26:48.700Z,100232.63
2023-02-26T06:29:19.284Z,100228.31
2023-02-26T06:31:48.793Z,100234.19
2023-02-26T06:34:17.272Z,100221.69
2023-02-26T06:36:46.192Z,100211.97
2023-02-26T06:39:14.725Z,100206.13
2023-02-26T06:41:43.018Z,100194.38
2023-02-26T06:44:12.403Z,100183.91
2023-02-26T06:46:40.796Z,100176.50
2023-02-26T06:49:09.432Z,100180.38
2023-02-26T06:51:38.076Z,100175.28
2023-02-26T06:54:06.472Z,100163.53
2023-02-26T06:56:34.965Z,100147.94
2023-02-26T06:59:03.349Z,100152.28
2023-02-26T07:01:33.042Z,100136.19
2023-02-26T07:04:01.415Z,100142.84
2023-02-26T07:06:29.718Z,100145.91
2023-02-26T07:08:58.266Z,100122.16
2023-02-26T07:11:26.786Z,100122.91
2023-02-26T07:13:56.020Z,100111.94
2023-02-26T07:16:24.626Z,100112.19
2023-02-26T07:18:53.172Z,100110.41
2023-02-26T07:21:21.568Z,100112.72
2023-02-26T07:23:50.007Z,100099.41
2023-02-26T07:26:18.568Z,100103.25
2023-02-26T07:28:46.893Z,100106.84
2023-02-26T07:31:17.551Z,100092.78
2023-02-26T07:33:45.992Z,100087.91
2023-02-26T07:36:14.315Z,100077.22
2023-02-26T07:38:42.646Z,100074.91
2023-02-26T07:41:10.974Z,100073.13
2023-02-26T07:43:39.502Z,100070.56
2023-02-26T07:46:07.915Z,100065.72
2023-02-26T07:48:38.036Z,100058.56
2023-02-26T07:51:08.775Z,100051.16
2023-02-26T07:53:37.099Z,100039.63
2023-02-26T07:56:05.824Z,100045.53
2023-02-26T07:58:34.293Z,100041.69
2023-02-26T08:01:02.707Z,100038.09
2023-02-26T08:03:31.039Z,100040.91
2023-02-26T08:06:01.266Z,100035.28
2023-02-26T08:08:30.155Z,100038.09
2023-02-26T08:11:01.291Z,100029.94
2023-02-26T08:13:29.794Z,100037.84
2023-02-26T08:15:58.234Z,100033.00
2023-02-26T08:18:26.650Z,100020.22
2023-02-26T08:20:55.113Z,100022.25
2023-02-26T08:23:23.742Z,100017.41
2023-02-26T08:25:52.079Z,100019.97
2023-02-26T08:28:20.377Z,100014.06
2023-02-26T08:30:48.682Z,100006.66
2023-02-26T08:33:17.214Z,100021.50
2023-02-26T08:35:45.498Z,100018.69
2023-02-26T08:38:13.880Z,100018.69
2023-02-26T08:40:42.756Z,100009.47
2023-02-26T08:43:12.718Z,100013.06
2023-02-26T08:45:41.055Z,100008.19
2023-02-26T08:48:10.828Z,100004.63
2023-02-26T08:50:39.630Z,100007.44
2023-02-26T08:53:08.693Z,99996.94
2023-02-26T08:55:37.090Z,100004.63
2023-02-26T08:58:05.537Z,100004.63
2023-02-26T09:00:33.819Z,100000.78
2023-02-26T09:03:02.313Z,100003.59
2023-02-26T09:05:30.655Z,99998.47
2023-02-26T09:07:59.034Z,100002.81
2023-02-26T09:10:27.336Z,100000.53
2023-02-26T09:12:55.953Z,99996.66
2023-02-26T09:15:24.486Z,100007.41
2023-02-26T09:17:52.797Z,100007.91
2023-02-26T09:20:21.204Z,100003.31
2023-02-26T09:22:49.884Z,100001.78
2023-02-26T09:25:18.259Z,100009.19
2023-02-26T09:27:46.551Z,100005.88
2023-02-26T09:30:15.371Z,100010.72
2023-02-26T09:32:43.769Z,100008.94
2023-02-26T09:35:12.563Z,100010.22
2023-02-26T09:37:41.219Z,100007.13
2023-02-26T09:40:14.511Z,100010.47
2023-02-26T09:42:50.262Z,100017.09
2023-02-26T09:45:31.636Z,100014.03
2023-02-26T09:48:03.317Z,100016.28
2023-02-26T09:50:37.739Z,100016.28
2023-02-26T09:53:35.959Z,100025.75
2023-02-26T09:56:15.787Z,100026.75
2023-02-26T09:58:45.734Z,100025.47
2023-02-26T10:01:44.784Z,100034.16
2023-02-26T10:04:21.976Z,100040.78
2023-02-26T10:07:14.734Z,100032.59
2023-02-26T10:09:50.817Z,100035.63
2023-02-26T10:12:22.682Z,100044.28
2023-02-26T10:15:04.861Z,100042.97
2023-02-26T10:18:03.979Z,100050.88
2023-02-26T10:20:37.687Z,100047.56
2023-02-26T10:23:23.722Z,100052.38
2023-02-26T10:26:05.798Z,100061.06
2023-02-26T10:28:55.248Z,100066.09
2023-02-26T10:31:41.758Z,100068.38
2023-02-26T10:34:15.512Z,100075.50
2023-02-26T10:36:56.708Z,100071.91
2023-02-26T10:39:48.498Z,100089.75
2023-02-26T10:42:39.010Z,100091.00
2023-02-26T10:45:25.204Z,100088.91
2023-02-26T10:47:53.537Z,100095.22
2023-02-26T10:50:24.420Z,100090.34
2023-02-26T10:52:53.934Z,100090.28
2023-02-26T10:55:35.481Z,100103.78
2023-02-26T10:58:16.899Z,100102.94
2023-02-26T11:00:54.569Z,100105.72
2023-02-26T11:03:36.474Z,100103.13
2023-02-26T11:06:07.549Z,100102.31
2023-02-26T11:08:43.802Z,100105.09
2023-02-26T11:11:12.630Z,100106.56
2023-02-26T11:13:41.592Z,100118.50
2023-02-26T11:16:17.191Z,100121.75
2023-02-26T11:18:51.061Z,100119.66
2023-02-26T11:21:31.933Z,100118.31
2023-02-26T11:24:06.285Z,100113.13
2023-02-26T11:26:37.688Z,100130.16
2023-02-26T11:29:07.424Z,100129.59
2023-02-26T11:31:35.772Z,100132.63
2023-02-26T11:34:06.881Z,100133.13
2023-02-26T11:36:38.728Z,100144.81
2023-02-26T11:39:15.775Z,100146.28
2023-02-26T11:41:47.989Z,100147.56
2023-02-26T11:44:20.282Z,100140.63
2023-02-26T11:46:58.340Z,100155.31
2023-02-26T11:49:29.876Z,100154.00
2023-02-26T11:52:27.019Z,100160.78
2023-02-26T11:55:03.284Z,100160.72
2023-02-26T11:57:33.888Z,100165.50
2023-02-26T12:00:17.868Z,100163.84
2023-02-26T12:02:46.186Z,100173.41
2023-02-26T12:05:19.189Z,100168.50
2023-02-26T12:07:49.656Z,100183.19
2023-02-26T12:10:28.368Z,100180.28
2023-02-26T12:13:03.172Z,100191.41
2023-02-26T12:15:40.025Z,100186.97
2023-02-26T12:18:20.176Z,100193.28
2023-02-26T12:21:26.772Z,100201.09
2023-02-26T12:24:16.920Z,100208.59
2023-02-26T12:27:23.421Z,100216.44
2023-02-26T12:29:59.257Z,100214.31
2023-02-26T12:32:42.745Z,100224.63
2023-02-26T12:35:26.039Z,100226.56
2023-02-26T12:38:16.433Z,100226.75
2023-02-26T12:40:50.498Z,100232.50
2023-02-26T12:43:36.016Z,100233.94
2023-02-26T12:46:24.292Z,100233.38
2023-02-26T12:49:18.478Z,100241.94
2023-02-26T12:52:01.754Z,100248.22
2023-02-26T12:55:00.681Z,100240.00
2023-02-26T12:57:40.849Z,100253.38
2023-02-26T13:00:33.116Z,100249.22
2023-02-26T13:03:13.221Z,100262.31
2023-02-26T13:06:02.371Z,100260.78
2023-02-26T13:08:42.729Z,100277.75
2023-02-26T13:11:48.815Z,100293.44
2023-02-26T13:14:32.490Z,100289.28
2023-02-26T13:17:18.347Z,100292.28
2023-02-26T13:19:52.283Z,100300.34
2023-02-26T13:22:51.728Z,100308.91
2023-02-26T13:25:31.976Z,100314.66
2023-02-26T13:28:04.367Z,100319.66
2023-02-26T13:30:37.667Z,100322.16
2023-02-26T13:33:08.163Z,100334.75
2023-02-26T13:35:46.231Z,100331.34
2023-02-26T13:38:51.393Z,100334.31
2023-02-26T13:41:28.885Z,100340.03
2023-02-26T13:44:09.351Z,100349.84
2023-02-26T13:46:58.018Z,100364.75
2023-02-26T13:49:49.965Z,100368.97
2023-02-26T13:52:30.744Z,100367.59
2023-02-26T13:55:00.331Z,100369.31
2023-02-26T13:57:44.185Z,100377.88
2023-02-26T14:00:34.191Z,100372.59
2023-02-26T14:03:30.857Z,100383.00
2023-02-26T14:06:28.595Z,100382.06
2023-02-26T14:08:59.372Z,100381.00
2023-02-26T14:12:00.853Z,100399.94
2023-02-26T14:14:44.646Z,100399.63
2023-02-26T14:17:13.075Z,100407.22
2023-02-26T14:19:45.495Z,100405.38
2023-02-26T14:22:30.203Z,100403.53
2023-02-26T14:25:16.713Z,100413.59
2023-02-26T14:27:47.604Z,100413.75
2023-02-26T14:30:31.532Z,100422.28
2023-02-26T14:32:59.813Z,100421.97
2023-02-26T14:35:36.502Z,100432.97
2023-02-26T14:38:14.461Z,100432.66
2023-02-26T14:41:04.294Z,100432.81
2023-02-26T14:43:52.534Z,100439.78
2023-02-26T14:46:21.449Z,100444.72
2023-02-26T14:48:50.116Z,100440.53
2023-02-26T14:51:59.692Z,100452.63
2023-02-26T14:54:49.956Z,100446.91
2023-02-26T14:57:59.471Z,100453.88
2023-02-26T15:01:02.760Z,100463.63
2023-02-26T15:03:55.439Z,100456.16
2023-02-26T15:07:12.295Z,100457.56
2023-02-26T15:09:52.854Z,100462.97
2023-02-26T15:12:45.141Z,100456.00
2023-02-26T15:15:40.725Z,100459.69
2023-02-26T15:18:30.250Z,100462.63
2023-02-26T15:21:01.586Z,100464.03
2023-02-26T15:23:40.004Z,100462.59
2023-02-26T15:26:14.323Z,100466.31
2023-02-26T15:28:43.532Z,100462.13
2023-02-26T15:31:14.258Z,100473.38
2023-02-26T15:33:43.613Z,100471.50
2023-02-26T15:36:18.752Z,100474.44
2023-02-26T15:39:01.706Z,100478.59
2023-02-26T15:41:34.713Z,100479.94
2023-02-26T15:44:08.483Z,100473.75
2023-02-26T15:46:40.503Z,100469.56
2023-02-26T15:49:20.413Z,100479.59
2023-02-26T15:51:48.979Z,100478.97
2023-02-26T15:54:23.598Z,100478.19
2023-02-26T15:56:52.760Z,100478.78
2023-02-26T15:59:23.188Z,100482.03
2023-02-26T16:01:51.895Z,100480.91
2023-02-26T16:04:22.780Z,100479.81
2023-02-26T16:07:00.210Z,100479.94
2023-02-26T16:09:40.630Z,100477.63
2023-02-26T16:12:17.440Z,100473.41
2023-02-26T16:14:50.778Z,100475.09
2023-02-26T16:17:28.212Z,100472.00
2023-02-26T16:20:00.224Z,100467.81
2023-02-26T16:22:42.989Z,100469.94
2023-02-26T16:25:25.361Z,100471.28
2023-02-26T16:28:14.629Z,100458.72
2023-02-26T16:30:46.057Z,100462.09
2023-02-26T16:33:16.918Z,100458.66
2023-02-26T16:36:07.909Z,100459.22
2023-02-26T16:38:50.758Z,100457.78
2023-02-26T16:41:25.707Z,100451.56
2023-02-26T16:44:02.156Z,100453.25
2023-02-26T16:46:39.209Z,100453.72
2023-02-26T16:49:16.964Z,100447.81
2023-02-26T16:51:47.099Z,100445.50
2023-02-26T16:54:33.259Z,100443.94
2023-02-26T16:57:07.980Z,100441.94
2023-02-26T16:59:44.382Z,100435.28
2023-02-26T17:02:23.267Z,100431.72
2023-02-26T17:04:55.790Z,100430.16
2023-02-26T17:07:29.222Z,100431.06
2023-02-26T17:10:00.159Z,100435.53
2023-02-26T17:12:44.759Z,100428.88
2023-02-26T17:15:22.062Z,100424.53
2023-02-26T17:17:50.577Z,100419.84
2023-02-26T17:20:19.075Z,100422.63
2023-02-26T17:22:47.461Z,100421.84
2023-02-26T17:25:18.459Z,100414.72
2023-02-26T17:27:48.387Z,100419.97
2023-02-26T17:30:23.079Z,100408.84
2023-02-26T17:32:51.843Z,100408.53
2023-02-26T17:35:20.565Z,100415.00
2023-02-26T17:37:49.140Z,100406.31
2023-02-26T17:40:30.428Z,100410.78
2023-02-26T17:43:00.930Z,100400.56
2023-02-26T17:45:29.311Z,100404.25
2023-02-26T17:47:57.687Z,100402.69
2023-02-26T17:50:37.824Z,100406.47
2023-02-26T17:53:06.840Z,100402.59
2023-02-26T17:55:36.795Z,100395.16
2023-02-26T17:58:05.215Z,100401.63
2023-02-26T18:00:35.345Z,100394.19
2023-02-26T18:03:04.562Z,100382.75
2023-02-26T18:05:37.470Z,100390.75
2023-02-26T18:08:07.621Z,100387.28
2023-02-26T18:10:36.022Z,100392.84
2023-02-26T18:13:04.545Z,100392.19
2023-02-26T18:15:32.861Z,100379.16
2023-02-26T18:18:01.239Z,100380.41
2023-02-26T18:20:30.922Z,100372.97
2023-02-26T18:22:59.722Z,100373.53
2023-02-26T18:25:29.382Z,100372.31
2023-02-26T18:28:01.373Z,100368.09
2023-02-26T18:30:33.733Z,100367.78
2023-02-26T18:33:02.741Z,100355.56
2023-02-26T18:35:32.236Z,100354.44
2023-02-26T18:38:00.707Z,100349.34
2023-02-26T18:40:29.390Z,100346.25
2023-02-26T18:42:57.836Z,100338.81
2023-02-26T18:45:26.143Z,100341.22
2023-02-26T18:47:55.162Z,100331.00
2023-02-26T18:50:23.589Z,100323.56
2023-02-26T18:52:51.981Z,100328.81
2023-02-26T18:55:20.436Z,100320.13
2023-02-26T18:57:48.760Z,100317.03
2023-02-26T19:00:17.353Z,100322.72
2023-02-26T19:02:46.965Z,100317.16
2023-02-26T19:05:17.342Z,100311.28
2023-02-26T19:07:45.765Z,100314.16
2023-02-26T19:10:15.990Z,100314.63
2023-02-26T19:12:44.943Z,100316.28
2023-02-26T19:15:14.962Z,100315.94
2023-02-26T19:17:45.248Z,100312.81
2023-02-26T19:20:14.883Z,100308.94
2023-02-26T19:22:43.254Z,100307.41
2023-02-26T19:25:11.917Z,100305.84
2023-02-26T19:27:40.697Z,100304.28
2023-02-26T19:30:10.466Z,100305.50
2023-02-26T19:32:38.887Z,100304.41
2023-02-26T19:35:08.795Z,100305.31
2023-02-26T19:37:37.437Z,100306.97
2023-02-26T19:40:13.118Z,100305.88
2023-02-26T19:42:42.380Z,100303.22
2023-02-26T19:45:11.346Z,100302.88
2023-02-26T19:47:40.021Z,100297.75
2023-02-26T19:50:09.327Z,100297.81
2023-02-26T19:52:38.311Z,100302.59
2023-02-26T19:55:08.570Z,100295.63
2023-02-26T19:57:37.736Z,100299.28
2023-02-26T20:00:07.968Z,100294.63
2023-02-26T20:02:36.323Z,100298.28
2023-02-26T20:05:06.635Z,100291.31
2023-02-26T20:07:36.030Z,100293.81
2023-02-26T20:10:04.749Z,100291.16
2023-02-26T20:12:33.064Z,100290.06
2023-02-26T20:15:01.550Z,100285.41
2023-02-26T20:17:29.843Z,100279.63
2023-02-26T20:19:58.180Z,100282.84
2023-02-26T20:22:26.532Z,100274.63
2023-02-26T20:24:54.928Z,100285.41
2023-02-26T20:27:23.237Z,100278.72
2023-02-26T20:29:51.961Z,100280.72
2023-02-26T20:32:20.461Z,100286.34
2023-02-26T20:34:49.009Z,100280.47
2023-02-26T20:37:17.307Z,100280.91
2023-02-26T20:39:45.689Z,100274.25
2023-02-26T20:42:14.662Z,100276.69
2023-02-26T20:44:42.978Z,100278.81
2023-02-26T20:47:11.345Z,100273.69
2023-02-26T20:49:39.642Z,100274.59
2023-02-26T20:52:08.036Z,100272.69
2023-02-26T20:54:36.341Z,100273.91
2023-02-26T20:57:04.896Z,100271.59
2023-02-26T20:59:33.278Z,100273.25
2023-02-26T21:02:01.681Z,100274.44
2023-02-26T21:04:30.819Z,100273.66
2023-02-26T21:07:13.452Z,100280.84
2023-02-26T21:09:42.200Z,100278.97
2023-02-26T21:12:10.519Z,100280.53
2023-02-26T21:14:38.833Z,100288.94
2023-02-26T21:17:08.115Z,100283.06
2023-02-26T21:19:36.601Z,100281.91
2023-02-26T21:22:05.645Z,100281.59
2023-02-26T21:24:34.018Z,100278.47
2023-02-26T21:27:02.844Z,100278.91
2023-02-26T21:29:31.236Z,100278.56
2023-02-26T21:32:04.296Z,100284.56
2023-02-26T21:34:35.852Z,100283.00
2023-02-26T21:37:06.976Z,100279.91
2023-02-26T21:39:35.626Z,100287.00
2023-02-26T21:42:04.693Z,100283.44
2023-02-26T21:44:35.747Z,100287.00
2023-02-26T21:47:04.886Z,100283.06
2023-02-26T21:49:33.734Z,100283.88
2023-02-26T21:52:05.374Z,100290.59
2023-02-26T21:54:34.437Z,100287.06
2023-02-26T21:57:02.799Z,100297.38
2023-02-26T21:59:31.146Z,100298.16
2023-02-26T22:01:59.712Z,100295.81
2023-02-26T22:04:28.165Z,100299.38
2023-02-26T22:06:56.663Z,100302.91
2023-02-26T22:09:25.179Z,100299.03
2023-02-26T22:11:53.472Z,100303.44
2023-02-26T22:14:21.765Z,100301.22
2023-02-26T22:16:50.169Z,100316.28
2023-02-26T22:19:18.667Z,100317.59
2023-02-26T22:21:47.048Z,100319.69
2023-02-26T22:24:15.370Z,100329.31
2023-02-26T22:26:45.449Z,100331.34
2023-02-26T22:29:13.750Z,100330.69
2023-02-26T22:31:42.398Z,100330.00
2023-02-26T22:34:10.988Z,100335.28
2023-02-26T22:36:39.262Z,100333.03
2023-02-26T22:39:07.619Z,100337.88
2023-02-26T22:41:36.202Z,100350.22
2023-02-26T22:44:05.445Z,100355.84
2023-02-26T22:46:34.186Z,100352.06
2023-02-26T22:49:02.560Z,100349.38
2023-02-26T22:51:31.079Z,100352.66
2023-02-26T22:54:00.482Z,100359.84
2023-02-26T22:56:29.868Z,100357.56
2023-02-26T22:58:58.349Z,100358.81
2023-02-26T23:01:26.866Z,100358.91
2023-02-26T23:03:55.159Z,100362.97
2023-02-26T23:06:23.570Z,100369.78
2023-02-26T23:08:52.467Z,100370.22
2023-02-26T23:11:20.900Z,100366.41
2023-02-26T23:13:49.227Z,100377.81
2023-02-26T23:16:17.549Z,100371.56
2023-02-26T23:18:48.923Z,100377.53
2023-02-26T23:21:17.620Z,100366.69
2023-02-26T23:23:46.060Z,100387.53
2023-02-26T23:26:14.742Z,100384.06
2023-02-26T23:28:43.090Z,100385.72
2023-02-26T23:31:11.498Z,100394.44
2023-02-26T23:33:39.837Z,100396.06
2023-02-26T23:36:08.669Z,100398.06
2023-02-26T23:38:37.445Z,100402.44
2023-02-26T23:41:06.043Z,100406.41
2023-02-26T23:43:34.457Z,100401.31
2023-02-26T23:46:02.846Z,100400.97
2023-02-26T23:48:31.336Z,100410.03
2023-02-26T23:50:59.747Z,100416.78
2023-02-26T23:53:28.162Z,100423.09
2023-02-26T23:55:59.689Z,100413.19
2023-02-26T23:58:30.028Z,100421.50
